createdAt,value
2018-01-12T00:01:27.098Z,141.07
2018-01-12T00:03:54.740Z,142.27
2018-01-12T00:06:22.335Z,152.53
2018-01-12T00:08:49.901Z,141.20
2018-01-12T00:11:17.443Z,139.30
2018-01-12T00:13:44.981Z,152.73
2018-01-12T00:16:12.538Z,136.47
2018-01-12T00:18:40.103Z,140.03
2018-01-12T00:21:07.663Z,153.40
2018-01-12T00:23:35.186Z,154.07
2018-01-12T00:26:02.718Z,136.87
2018-01-12T00:28:30.360Z,132.10
2018-01-12T00:30:57.899Z,127.90
2018-01-12T00:33:25.430Z,131.00
2018-01-12T00:35:52.961Z,128.67
2018-01-12T00:38:20.489Z,121.50
2018-01-12T00:40:48.004Z,134.93
2018-01-12T00:43:15.541Z,128.83
2018-01-12T00:45:43.088Z,153.73
2018-01-12T00:48:10.613Z,133.37
2018-01-12T00:50:38.133Z,135.27
2018-01-12T00:53:05.662Z,117.50
2018-01-12T00:55:33.186Z,126.40
2018-01-12T00:58:00.719Z,131.73
2018-01-12T01:00:28.246Z,124.03
2018-01-12T01:02:55.776Z,137.93
2018-01-12T01:05:23.300Z,130.17
2018-01-12T01:07:50.885Z,136.87
2018-01-12T01:10:18.415Z,132.20
2018-01-12T01:12:45.943Z,135.70
2018-01-12T01:15:13.556Z,128.33
2018-01-12T01:17:41.080Z,133.57
2018-01-12T01:20:08.620Z,140.77
2018-01-12T01:22:36.148Z,127.17
2018-01-12T01:25:03.672Z,133.13
2018-01-12T01:27:31.201Z,146.40
2018-01-12T01:29:58.726Z,126.73
2018-01-12T01:32:26.246Z,136.43
2018-01-12T01:34:53.809Z,139.10
2018-01-12T01:37:21.333Z,134.07
2018-01-12T01:39:48.862Z,137.93
2018-01-12T01:42:16.381Z,135.10
2018-01-12T01:44:43.909Z,142.40
2018-01-12T01:47:11.435Z,141.50
2018-01-12T01:49:38.962Z,133.17
2018-01-12T01:52:06.513Z,142.10
2018-01-12T01:54:34.119Z,137.03
2018-01-12T01:57:01.645Z,139.83
2018-01-12T01:59:29.181Z,140.67
2018-01-12T02:01:56.715Z,135.77
2018-01-12T02:04:24.348Z,139.93
2018-01-12T02:06:51.873Z,142.30
2018-01-12T02:09:19.417Z,140.43
2018-01-12T02:11:46.968Z,132.23
2018-01-12T02:14:14.501Z,125.87
2018-01-12T02:16:42.026Z,116.57
2018-01-12T02:19:09.553Z,130.10
2018-01-12T02:21:37.145Z,125.57
2018-01-12T02:24:04.737Z,129.17
2018-01-12T02:26:32.265Z,127.97
2018-01-12T02:28:59.790Z,145.97
2018-01-12T02:31:27.412Z,142.53
2018-01-12T02:33:54.937Z,132.43
2018-01-12T02:36:22.469Z,137.50
2018-01-12T02:38:49.996Z,136.00
2018-01-12T02:41:17.522Z,138.00
2018-01-12T02:43:45.114Z,131.43
2018-01-12T02:46:12.635Z,129.40
2018-01-12T02:48:40.237Z,137.53
2018-01-12T02:51:07.762Z,134.10
2018-01-12T02:53:35.322Z,150.57
2018-01-12T02:56:02.917Z,137.83
2018-01-12T02:58:30.443Z,143.23
2018-01-12T03:00:57.972Z,129.90
2018-01-12T03:03:25.591Z,128.03
2018-01-12T03:05:53.121Z,130.47
2018-01-12T03:08:20.654Z,135.53
2018-01-12T03:10:48.178Z,139.17
2018-01-12T03:13:15.706Z,136.27
2018-01-12T03:15:43.234Z,134.27
2018-01-12T03:18:10.784Z,137.00
2018-01-12T03:20:38.306Z,139.57
2018-01-12T03:23:05.831Z,136.27
2018-01-12T03:25:33.358Z,135.80
2018-01-12T03:28:00.990Z,136.77
2018-01-12T03:30:28.518Z,147.33
2018-01-12T03:32:56.110Z,146.77
2018-01-12T03:35:23.672Z,134.00
2018-01-12T03:37:51.197Z,138.67
2018-01-12T03:40:18.777Z,145.67
2018-01-12T03:42:46.351Z,156.03
2018-01-12T03:45:13.900Z,159.07
2018-01-12T03:47:41.460Z,142.30
2018-01-12T03:50:08.990Z,148.70
2018-01-12T03:52:36.518Z,145.43
2018-01-12T03:55:04.051Z,146.17
2018-01-12T03:57:31.573Z,146.57
2018-01-12T03:59:59.162Z,152.00
2018-01-12T04:02:26.729Z,150.97
2018-01-12T04:04:54.257Z,139.07
2018-01-12T04:07:21.806Z,152.93
2018-01-12T04:09:49.338Z,160.20
2018-01-12T04:12:16.868Z,154.17
2018-01-12T04:14:44.397Z,160.17
2018-01-12T04:17:11.919Z,163.70
2018-01-12T04:19:39.448Z,156.30
2018-01-12T04:22:06.978Z,148.93
2018-01-12T04:24:34.511Z,165.97
2018-01-12T04:27:02.124Z,160.40
2018-01-12T04:29:29.684Z,155.33
2018-01-12T04:31:57.212Z,164.97
2018-01-12T04:34:24.801Z,174.40
2018-01-12T04:36:52.322Z,165.47
2018-01-12T04:39:19.854Z,163.27
2018-01-12T04:41:47.383Z,174.53
2018-01-12T04:44:14.918Z,188.07
2018-01-12T04:46:42.442Z,182.90
2018-01-12T04:49:09.970Z,183.87
2018-01-12T04:51:37.623Z,169.00
2018-01-12T04:54:05.152Z,162.70
2018-01-12T04:56:32.738Z,182.47
2018-01-12T04:59:01.253Z,176.00
2018-01-12T05:01:28.786Z,188.97
2018-01-12T05:03:56.301Z,177.77
2018-01-12T05:06:23.834Z,166.50
2018-01-12T05:08:51.362Z,156.77
2018-01-12T05:11:18.896Z,163.13
2018-01-12T05:13:46.439Z,158.77
2018-01-12T05:16:13.970Z,177.57
2018-01-12T05:18:41.506Z,160.10
2018-01-12T05:21:09.026Z,174.73
2018-01-12T05:23:36.544Z,177.47
2018-01-12T05:26:04.065Z,170.37
2018-01-12T05:28:31.589Z,154.47
2018-01-12T05:30:59.121Z,144.10
2018-01-12T05:33:26.657Z,153.67
2018-01-12T05:35:54.186Z,148.93
2018-01-12T05:38:21.776Z,157.33
2018-01-12T05:40:49.305Z,129.97
2018-01-12T05:43:16.867Z,152.83
2018-01-12T05:45:44.425Z,139.63
2018-01-12T05:48:11.951Z,150.33
2018-01-12T05:50:39.478Z,145.00
2018-01-12T05:53:07.033Z,131.40
2018-01-12T05:55:34.562Z,121.27
2018-01-12T05:58:02.090Z,127.60
2018-01-12T06:00:29.711Z,116.60
2018-01-12T06:03:08.940Z,128.17
2018-01-12T06:05:48.382Z,122.80
2018-01-12T06:08:15.913Z,124.23
2018-01-12T06:10:43.437Z,117.40
2018-01-12T06:13:10.967Z,120.43
2018-01-12T06:15:38.520Z,102.67
2018-01-12T06:18:06.045Z,109.93
2018-01-12T06:20:33.574Z,111.70
2018-01-12T06:23:01.088Z,104.13
2018-01-12T06:25:28.606Z,97.57
2018-01-12T06:27:56.136Z,94.67
2018-01-12T06:30:23.656Z,107.83
2018-01-12T06:32:51.179Z,95.03
2018-01-12T06:35:18.697Z,98.93
2018-01-12T06:37:46.215Z,97.60
2018-01-12T06:40:13.770Z,90.23
2018-01-12T06:42:41.301Z,88.30
2018-01-12T06:45:08.831Z,96.60
2018-01-12T06:47:36.368Z,102.73
2018-01-12T06:50:03.901Z,83.53
2018-01-12T06:52:31.417Z,83.60
2018-01-12T06:54:58.937Z,71.13
2018-01-12T06:57:26.465Z,79.43
2018-01-12T06:59:53.990Z,74.20
2018-01-12T07:02:21.505Z,72.27
2018-01-12T07:04:49.037Z,71.63
2018-01-12T07:07:16.564Z,65.47
2018-01-12T07:09:44.085Z,69.60
2018-01-12T07:12:11.632Z,63.40
2018-01-12T07:14:39.182Z,60.10
2018-01-12T07:17:06.707Z,62.17
2018-01-12T07:19:34.230Z,59.83
2018-01-12T07:22:13.639Z,63.40
2018-01-12T07:24:41.166Z,61.00
2018-01-12T07:27:08.704Z,59.40
2018-01-12T07:29:36.277Z,63.93
2018-01-12T07:32:03.800Z,64.53
2018-01-12T07:34:31.358Z,61.20
2018-01-12T07:36:58.923Z,64.47
2018-01-12T07:39:26.445Z,63.43
2018-01-12T07:41:53.974Z,60.73
2018-01-12T07:44:21.501Z,63.10
2018-01-12T07:46:49.035Z,65.33
2018-01-12T07:49:16.556Z,63.30
2018-01-12T07:51:44.117Z,58.57
2018-01-12T07:54:11.670Z,67.83
2018-01-12T07:56:39.192Z,58.40
2018-01-12T07:59:06.708Z,63.63
2018-01-12T08:01:39.889Z,59.50
2018-01-12T08:04:07.414Z,65.63
2018-01-12T08:06:34.939Z,60.47
2018-01-12T08:09:02.460Z,59.20
2018-01-12T08:11:29.991Z,58.03
2018-01-12T08:13:57.549Z,76.90
2018-01-12T08:16:25.073Z,65.70
2018-01-12T08:18:52.590Z,60.80
2018-01-12T08:21:20.161Z,61.37
2018-01-12T08:23:47.680Z,59.60
2018-01-12T08:26:15.282Z,54.53
2018-01-12T08:28:42.815Z,60.60
2018-01-12T08:31:10.404Z,61.13
2018-01-12T08:33:37.926Z,60.70
2018-01-12T08:36:05.453Z,59.93
2018-01-12T08:38:32.975Z,60.77
2018-01-12T08:41:00.528Z,56.73
2018-01-12T08:43:28.052Z,55.33
2018-01-12T08:45:55.579Z,54.97
2018-01-12T08:48:23.215Z,56.40
2018-01-12T08:50:50.746Z,58.97
2018-01-12T08:53:18.264Z,55.43
2018-01-12T08:55:45.800Z,59.43
2018-01-12T08:58:13.322Z,54.70
2018-01-12T09:00:40.915Z,56.20
2018-01-12T09:03:08.433Z,61.53
2018-01-12T09:05:35.961Z,55.80
2018-01-12T09:08:03.477Z,54.47
2018-01-12T09:10:31.088Z,55.47
2018-01-12T09:12:58.590Z,56.33
2018-01-12T09:15:29.077Z,59.43
2018-01-12T09:18:00.419Z,54.73
2018-01-12T09:20:33.810Z,62.07
2018-01-12T09:23:12.214Z,67.27
2018-01-12T09:25:39.737Z,56.80
2018-01-12T09:28:07.319Z,59.53
2018-01-12T09:30:34.842Z,62.20
2018-01-12T09:33:02.405Z,66.83
2018-01-12T09:35:30.003Z,64.37
2018-01-12T09:38:09.298Z,61.87
2018-01-12T09:40:48.145Z,61.27
2018-01-12T09:43:15.672Z,59.57
2018-01-12T09:45:43.388Z,64.77
2018-01-12T09:48:37.677Z,63.83
2018-01-12T09:51:05.200Z,71.20
2018-01-12T09:53:32.788Z,66.70
2018-01-12T09:56:00.364Z,74.37
2018-01-12T09:58:27.882Z,66.57
2018-01-12T10:00:56.298Z,61.63
2018-01-12T10:03:23.818Z,75.77
2018-01-12T10:05:51.361Z,68.57
2018-01-12T10:08:24.806Z,70.70
2018-01-12T10:10:52.329Z,70.93
2018-01-12T10:13:19.850Z,67.63
2018-01-12T10:15:47.368Z,68.27
2018-01-12T10:18:26.709Z,63.10
2018-01-12T10:20:54.230Z,70.47
2018-01-12T10:23:21.755Z,63.50
2018-01-12T10:25:49.270Z,62.27
2018-01-12T10:28:19.484Z,64.20
2018-01-12T10:30:59.644Z,70.67
2018-01-12T10:33:42.724Z,67.77
2018-01-12T10:36:10.245Z,67.03
2018-01-12T10:38:37.772Z,60.60
2018-01-12T10:41:17.974Z,66.10
2018-01-12T10:43:45.493Z,65.07
2018-01-12T10:46:28.744Z,62.90
2018-01-12T10:48:57.195Z,64.70
2018-01-12T10:51:36.797Z,70.47
2018-01-12T10:54:04.322Z,64.60
2018-01-12T10:56:31.837Z,61.57
2018-01-12T10:58:59.465Z,62.30
2018-01-12T11:01:26.991Z,63.30
2018-01-12T11:03:54.517Z,64.77
2018-01-12T11:06:22.144Z,56.93
2018-01-12T11:08:49.700Z,59.80
2018-01-12T11:11:17.220Z,57.17
2018-01-12T11:13:45.744Z,62.33
2018-01-12T11:16:13.301Z,58.27
2018-01-12T11:18:40.836Z,60.77
2018-01-12T11:21:08.356Z,60.03
2018-01-12T11:23:35.872Z,59.17
2018-01-12T11:26:03.400Z,58.77
2018-01-12T11:28:30.919Z,58.90
2018-01-12T11:30:58.461Z,57.20
2018-01-12T11:33:25.980Z,60.83
2018-01-12T11:35:53.500Z,56.10
2018-01-12T11:38:21.022Z,58.70
2018-01-12T11:40:48.554Z,57.40
2018-01-12T11:43:16.081Z,59.23
2018-01-12T11:45:43.719Z,53.37
2018-01-12T11:48:11.279Z,63.23
2018-01-12T11:50:38.798Z,60.03
2018-01-12T11:53:06.407Z,62.83
2018-01-12T11:55:33.924Z,63.63
2018-01-12T11:58:01.467Z,60.47
2018-01-12T12:00:29.008Z,55.07
2018-01-12T12:02:56.536Z,57.77
2018-01-12T12:05:24.052Z,55.43
2018-01-12T12:07:51.583Z,63.13
2018-01-12T12:10:19.102Z,64.57
2018-01-12T12:12:46.661Z,57.77
2018-01-12T12:15:14.231Z,60.33
2018-01-12T12:17:41.781Z,60.23
2018-01-12T12:20:09.305Z,54.67
2018-01-12T12:22:36.845Z,62.07
2018-01-12T12:25:04.468Z,58.03
2018-01-12T12:27:32.001Z,61.70
2018-01-12T12:29:59.532Z,57.83
2018-01-12T12:32:27.120Z,56.37
2018-01-12T12:34:54.725Z,61.43
2018-01-12T12:37:22.246Z,62.17
2018-01-12T12:39:49.761Z,60.90
2018-01-12T12:42:17.291Z,60.03
2018-01-12T12:44:44.865Z,61.00
2018-01-12T12:47:12.386Z,68.03
2018-01-12T12:49:40.076Z,63.40
2018-01-12T12:52:07.595Z,58.57
2018-01-12T12:54:35.148Z,62.90
2018-01-12T12:57:02.739Z,62.83
2018-01-12T12:59:30.261Z,72.47
2018-01-12T13:01:57.773Z,67.07
2018-01-12T13:04:25.301Z,68.57
2018-01-12T13:06:52.891Z,67.57
2018-01-12T13:09:20.451Z,67.70
2018-01-12T13:11:48.007Z,66.33
2018-01-12T13:14:15.585Z,67.17
2018-01-12T13:16:43.106Z,70.33
2018-01-12T13:19:10.634Z,72.70
2018-01-12T13:21:38.166Z,69.83
2018-01-12T13:24:05.686Z,69.07
2018-01-12T13:26:33.208Z,82.67
2018-01-12T13:29:00.824Z,67.00
2018-01-12T13:31:28.341Z,65.43
2018-01-12T13:33:55.869Z,63.60
2018-01-12T13:36:23.380Z,69.47
2018-01-12T13:38:50.966Z,71.23
2018-01-12T13:41:18.496Z,67.53
2018-01-12T13:43:46.021Z,70.00
2018-01-12T13:46:13.596Z,72.60
2018-01-12T13:48:41.106Z,74.97
2018-01-12T13:51:08.666Z,69.33
2018-01-12T13:53:36.213Z,73.33
2018-01-12T13:56:03.755Z,78.87
2018-01-12T13:58:31.285Z,66.70
2018-01-12T14:00:58.808Z,65.17
2018-01-12T14:03:26.335Z,67.03
2018-01-12T14:05:53.879Z,65.57
2018-01-12T14:08:21.401Z,61.23
2018-01-12T14:10:49.065Z,68.00
2018-01-12T14:13:16.598Z,64.60
2018-01-12T14:15:44.224Z,70.73
2018-01-12T14:18:11.822Z,65.53
2018-01-12T14:20:39.336Z,63.90
2018-01-12T14:23:06.866Z,61.67
2018-01-12T14:25:34.402Z,69.70
2018-01-12T14:28:01.931Z,61.50
2018-01-12T14:30:29.451Z,70.17
2018-01-12T14:32:56.968Z,65.90
2018-01-12T14:35:24.492Z,76.43
2018-01-12T14:37:52.022Z,73.90
2018-01-12T14:40:19.541Z,70.50
2018-01-12T14:42:47.112Z,67.57
2018-01-12T14:45:14.640Z,64.03
2018-01-12T14:47:42.237Z,73.87
2018-01-12T14:50:09.791Z,72.17
2018-01-12T14:52:37.351Z,75.03
2018-01-12T14:55:04.932Z,75.33
2018-01-12T14:57:32.567Z,72.90
2018-01-12T15:00:00.091Z,73.50
2018-01-12T15:02:27.634Z,82.30
2018-01-12T15:04:55.213Z,75.83
2018-01-12T15:07:22.712Z,80.47
2018-01-12T15:09:50.233Z,74.27
2018-01-12T15:12:17.760Z,72.63
2018-01-12T15:14:45.290Z,71.77
2018-01-12T15:17:12.813Z,70.90
2018-01-12T15:19:40.365Z,76.50
2018-01-12T15:22:07.907Z,74.93
2018-01-12T15:24:35.536Z,76.63
2018-01-12T15:27:03.049Z,71.60
2018-01-12T15:29:30.654Z,76.70
2018-01-12T15:31:58.171Z,79.10
2018-01-12T15:34:25.729Z,73.43
2018-01-12T15:36:53.258Z,74.80
2018-01-12T15:39:20.894Z,75.60
2018-01-12T15:41:48.776Z,82.47
2018-01-12T15:44:16.321Z,72.27
2018-01-12T15:46:43.850Z,79.53
2018-01-12T15:49:11.369Z,74.77
2018-01-12T15:51:38.891Z,78.10
2018-01-12T15:54:06.413Z,82.13
2018-01-12T15:56:33.944Z,82.57
2018-01-12T15:59:01.473Z,88.33
2018-01-12T16:01:28.995Z,89.67
2018-01-12T16:03:56.558Z,84.43
2018-01-12T16:06:24.114Z,90.97
2018-01-12T16:08:51.705Z,88.00
2018-01-12T16:11:19.249Z,93.17
2018-01-12T16:13:46.774Z,93.90
2018-01-12T16:16:14.361Z,99.03
2018-01-12T16:18:41.918Z,98.17
2018-01-12T16:21:09.525Z,92.27
2018-01-12T16:23:37.090Z,94.50
2018-01-12T16:26:04.633Z,92.40
2018-01-12T16:28:32.164Z,95.53
2018-01-12T16:30:59.744Z,100.77
2018-01-12T16:33:27.261Z,98.77
2018-01-12T16:35:54.778Z,96.30
2018-01-12T16:38:22.320Z,101.07
2018-01-12T16:40:49.852Z,100.23
2018-01-12T16:43:17.422Z,100.17
2018-01-12T16:45:44.952Z,105.43
2018-01-12T16:48:12.574Z,106.60
2018-01-12T16:50:40.104Z,103.70
2018-01-12T16:53:07.626Z,103.33
2018-01-12T16:55:35.147Z,105.73
2018-01-12T16:58:02.676Z,99.97
2018-01-12T17:00:30.202Z,101.07
2018-01-12T17:02:57.821Z,99.27
2018-01-12T17:05:25.341Z,98.47
2018-01-12T17:07:52.878Z,95.67
2018-01-12T17:10:20.616Z,105.33
2018-01-12T17:12:48.133Z,96.00
2018-01-12T17:15:15.675Z,92.73
2018-01-12T17:17:43.217Z,94.87
2018-01-12T17:20:10.761Z,101.10
2018-01-12T17:22:38.286Z,101.17
2018-01-12T17:25:05.875Z,95.37
2018-01-12T17:27:33.410Z,90.10
2018-01-12T17:30:00.964Z,100.70
2018-01-12T17:32:28.571Z,96.97
2018-01-12T17:34:56.098Z,89.77
2018-01-12T17:37:23.625Z,90.77
2018-01-12T17:39:51.162Z,81.40
2018-01-12T17:42:18.792Z,76.20
2018-01-12T17:44:46.330Z,77.90
2018-01-12T17:47:13.853Z,84.37
2018-01-12T17:49:41.370Z,82.23
2018-01-12T17:52:08.905Z,80.60
2018-01-12T17:54:36.420Z,83.70
2018-01-12T17:57:03.949Z,77.80
2018-01-12T17:59:31.487Z,77.93
2018-01-12T18:01:59.068Z,76.37
2018-01-12T18:04:26.597Z,82.23
2018-01-12T18:06:54.142Z,86.47
2018-01-12T18:09:21.758Z,74.97
2018-01-12T18:11:49.306Z,80.17
2018-01-12T18:14:16.863Z,75.27
2018-01-12T18:16:44.487Z,76.90
2018-01-12T18:19:12.105Z,76.13
2018-01-12T18:21:39.635Z,75.47
2018-01-12T18:24:07.160Z,75.07
2018-01-12T18:26:34.776Z,70.40
2018-01-12T18:29:02.314Z,69.27
2018-01-12T18:31:29.999Z,67.13
2018-01-12T18:33:57.541Z,77.10
2018-01-12T18:36:25.077Z,63.80
2018-01-12T18:38:52.638Z,69.97
2018-01-12T18:41:20.400Z,72.67
2018-01-12T18:43:47.944Z,70.33
2018-01-12T18:46:15.472Z,71.03
2018-01-12T18:48:42.997Z,72.27
2018-01-12T18:51:10.528Z,73.30
2018-01-12T18:53:38.060Z,74.00
2018-01-12T18:56:05.573Z,76.60
2018-01-12T18:58:33.107Z,79.07
2018-01-12T19:01:00.637Z,80.07
2018-01-12T19:03:28.169Z,70.67
2018-01-12T19:05:55.798Z,77.37
2018-01-12T19:08:23.324Z,71.97
2018-01-12T19:10:50.962Z,75.20
2018-01-12T19:13:18.500Z,80.40
2018-01-12T19:15:46.017Z,85.13
2018-01-12T19:18:13.633Z,88.50
2018-01-12T19:20:41.213Z,82.67
2018-01-12T19:23:08.765Z,82.70
2018-01-12T19:25:36.297Z,79.23
2018-01-12T19:28:03.847Z,82.47
2018-01-12T19:30:31.437Z,80.00
2018-01-12T19:32:58.962Z,96.40
2018-01-12T19:35:26.599Z,82.30
2018-01-12T19:37:54.489Z,91.03
2018-01-12T19:40:22.018Z,80.47
2018-01-12T19:42:49.645Z,83.00
2018-01-12T19:45:17.208Z,95.20
2018-01-12T19:47:44.746Z,92.77
2018-01-12T19:50:12.289Z,91.60
2018-01-12T19:52:39.831Z,100.13
2018-01-12T19:55:07.449Z,88.17
2018-01-12T19:57:35.217Z,92.57
2018-01-12T20:00:02.768Z,92.70
2018-01-12T20:02:30.287Z,97.73
2018-01-12T20:04:57.958Z,97.47
2018-01-12T20:07:25.703Z,100.70
2018-01-12T20:09:53.377Z,101.93
2018-01-12T20:12:21.054Z,101.23
2018-01-12T20:14:49.239Z,108.00
2018-01-12T20:17:16.787Z,107.93
2018-01-12T20:19:44.413Z,99.47
2018-01-12T20:22:12.028Z,104.13
2018-01-12T20:24:39.562Z,99.23
2018-01-12T20:27:07.090Z,100.73
2018-01-12T20:29:34.654Z,108.60
2018-01-12T20:32:02.181Z,99.97
2018-01-12T20:34:29.710Z,100.73
2018-01-12T20:36:57.234Z,102.77
2018-01-12T20:39:24.777Z,113.93
2018-01-12T20:41:52.341Z,104.90
2018-01-12T20:44:19.867Z,99.73
2018-01-12T20:46:47.598Z,91.37
2018-01-12T20:49:15.122Z,95.93
2018-01-12T20:51:42.776Z,94.93
2018-01-12T20:54:10.317Z,92.03
2018-01-12T20:56:37.836Z,104.00
2018-01-12T20:59:05.418Z,97.37
2018-01-12T21:01:32.963Z,109.13
2018-01-12T21:04:00.548Z,101.57
2018-01-12T21:06:28.250Z,100.57
2018-01-12T21:08:55.806Z,110.93
2018-01-12T21:11:23.354Z,112.50
2018-01-12T21:13:50.882Z,116.32
2018-01-12T21:16:18.506Z,108.40
2018-01-12T21:18:46.218Z,106.13
2018-01-12T21:21:13.747Z,99.17
2018-01-12T21:23:41.347Z,99.37
2018-01-12T21:26:08.865Z,100.43
2018-01-12T21:28:36.406Z,106.73
2018-01-12T21:31:04.055Z,107.30
2018-01-12T21:33:31.685Z,97.37
2018-01-12T21:35:59.226Z,96.00
2018-01-12T21:38:27.723Z,103.07
2018-01-12T21:40:57.441Z,101.97
2018-01-12T21:43:25.010Z,99.07
2018-01-12T21:45:53.594Z,92.93
2018-01-12T21:48:21.141Z,98.37
2018-01-12T21:50:48.730Z,98.90
2018-01-12T21:53:16.240Z,98.40
2018-01-12T21:55:43.820Z,105.93
2018-01-12T21:58:11.357Z,106.27
2018-01-12T22:00:38.967Z,108.20
2018-01-12T22:03:06.797Z,109.03
2018-01-12T22:05:34.370Z,107.87
2018-01-12T22:08:01.979Z,104.83
2018-01-12T22:10:29.511Z,103.83
2018-01-12T22:12:57.136Z,111.27
2018-01-12T22:15:24.666Z,107.93
2018-01-12T22:17:52.195Z,107.63
2018-01-12T22:20:19.740Z,111.17
2018-01-12T22:22:47.264Z,106.83
2018-01-12T22:25:14.811Z,113.00
2018-01-12T22:27:42.523Z,107.97
2018-01-12T22:30:10.045Z,109.27
2018-01-12T22:32:37.621Z,103.00
2018-01-12T22:35:05.198Z,100.10
2018-01-12T22:37:32.786Z,102.20
2018-01-12T22:40:00.308Z,99.27
2018-01-12T22:42:27.851Z,95.63
2018-01-12T22:44:55.400Z,95.80
2018-01-12T22:47:22.968Z,99.97
2018-01-12T22:49:50.533Z,109.00
2018-01-12T22:52:18.136Z,98.03
2018-01-12T22:54:45.690Z,105.67
2018-01-12T22:57:13.255Z,104.83
2018-01-12T22:59:40.788Z,106.03
2018-01-12T23:02:08.340Z,97.43
2018-01-12T23:04:35.874Z,101.33
2018-01-12T23:07:03.574Z,100.30
2018-01-12T23:09:31.852Z,98.63
2018-01-12T23:11:59.391Z,97.97
2018-01-12T23:14:26.922Z,109.55
2018-01-12T23:16:54.453Z,93.60
2018-01-12T23:19:22.189Z,98.57
2018-01-12T23:21:49.761Z,100.93
2018-01-12T23:24:17.411Z,102.00
2018-01-12T23:26:44.936Z,95.77
2018-01-12T23:29:12.530Z,98.20
2018-01-12T23:31:40.139Z,98.37
2018-01-12T23:34:07.740Z,98.07
2018-01-12T23:36:35.281Z,98.73
2018-01-12T23:39:02.885Z,95.30
2018-01-12T23:41:30.482Z,98.20
2018-01-12T23:43:58.090Z,97.10
2018-01-12T23:46:25.709Z,93.27
2018-01-12T23:48:53.252Z,97.40
2018-01-12T23:51:20.889Z,90.80
2018-01-12T23:53:48.449Z,102.10
2018-01-12T23:56:15.997Z,89.17
2018-01-12T23:58:43.528Z,89.63
